createdAt,value
2023-01-26T00:02:09.366Z,-1.90
2023-01-26T00:04:37.385Z,-1.90
2023-01-26T00:07:05.427Z,-2.00
2023-01-26T00:09:33.497Z,-2.00
2023-01-26T00:12:01.569Z,-2.00
2023-01-26T00:14:50.164Z,-2.00
2023-01-26T00:17:26.733Z,-2.10
2023-01-26T00:19:56.293Z,-2.00
2023-01-26T00:22:25.392Z,-2.00
2023-01-26T00:24:53.609Z,-1.90
2023-01-26T00:27:21.645Z,-1.90
2023-01-26T00:29:49.635Z,-1.90
2023-01-26T00:32:17.644Z,-1.90
2023-01-26T00:34:47.652Z,-2.00
2023-01-26T00:37:15.661Z,-2.00
2023-01-26T00:39:44.827Z,-2.20
2023-01-26T00:42:13.906Z,-2.20
2023-01-26T00:44:44.381Z,-2.10
2023-01-26T00:47:14.609Z,-2.10
2023-01-26T00:49:42.687Z,-2.00
2023-01-26T00:52:12.773Z,-2.10
2023-01-26T00:54:41.123Z,-2.00
2023-01-26T00:57:09.232Z,-2.10
2023-01-26T00:59:37.363Z,-2.10
2023-01-26T01:02:05.528Z,-2.10
2023-01-26T01:04:33.623Z,-2.20
2023-01-26T01:07:01.883Z,-2.20
2023-01-26T01:09:31.338Z,-2.20
2023-01-26T01:11:59.394Z,-2.20
2023-01-26T01:14:28.703Z,-2.20
2023-01-26T01:16:56.734Z,-2.30
2023-01-26T01:19:24.806Z,-2.40
2023-01-26T01:21:52.983Z,-2.30
2023-01-26T01:24:21.144Z,-2.30
2023-01-26T01:26:50.626Z,-2.20
2023-01-26T01:29:18.884Z,-2.30
2023-01-26T01:31:46.928Z,-2.30
2023-01-26T01:34:14.958Z,-2.30
2023-01-26T01:36:43.351Z,-2.30
2023-01-26T01:39:11.386Z,-2.30
2023-01-26T01:41:39.728Z,-2.30
2023-01-26T01:44:18.510Z,-2.40
2023-01-26T01:46:50.848Z,-2.40
2023-01-26T01:49:21.701Z,-2.40
2023-01-26T01:51:54.898Z,-2.40
2023-01-26T01:54:31.349Z,-2.40
2023-01-26T01:57:03.600Z,-2.50
2023-01-26T01:59:34.381Z,-2.50
2023-01-26T02:02:02.478Z,-2.50
2023-01-26T02:04:30.814Z,-2.50
2023-01-26T02:07:02.560Z,-2.40
2023-01-26T02:09:51.771Z,-2.50
2023-01-26T02:12:24.033Z,-2.50
2023-01-26T02:14:54.421Z,-2.50
2023-01-26T02:17:22.955Z,-2.50
2023-01-26T02:19:59.382Z,-2.50
2023-01-26T02:22:36.558Z,-2.50
2023-01-26T02:25:11.624Z,-2.40
2023-01-26T02:27:41.380Z,-2.50
2023-01-26T02:30:12.210Z,-2.50
2023-01-26T02:32:40.457Z,-2.50
2023-01-26T02:35:09.371Z,-2.50
2023-01-26T02:37:37.427Z,-2.50
2023-01-26T02:40:14.099Z,-2.50
2023-01-26T02:42:44.350Z,-2.50
2023-01-26T02:45:15.546Z,-2.40
2023-01-26T02:47:45.235Z,-2.40
2023-01-26T02:50:13.326Z,-2.50
2023-01-26T02:52:43.154Z,-2.50
2023-01-26T02:55:25.166Z,-2.50
2023-01-26T02:57:57.016Z,-2.50
2023-01-26T03:00:27.859Z,-2.40
2023-01-26T03:02:58.910Z,-2.50
2023-01-26T03:05:27.993Z,-2.40
2023-01-26T03:07:56.974Z,-2.40
2023-01-26T03:10:30.968Z,-2.40
2023-01-26T03:13:00.783Z,-2.40
2023-01-26T03:15:52.262Z,-2.40
2023-01-26T03:18:40.157Z,-2.40
2023-01-26T03:21:29.933Z,-2.50
2023-01-26T03:24:15.970Z,-2.50
2023-01-26T03:27:02.832Z,-2.40
2023-01-26T03:29:34.738Z,-2.40
2023-01-26T03:32:03.800Z,-2.40
2023-01-26T03:34:32.496Z,-2.40
2023-01-26T03:37:01.189Z,-2.40
2023-01-26T03:39:53.884Z,-2.40
2023-01-26T03:42:39.832Z,-2.40
2023-01-26T03:45:27.648Z,-2.30
2023-01-26T03:48:23.397Z,-2.30
2023-01-26T03:51:08.824Z,-2.30
2023-01-26T03:53:54.709Z,-2.30
2023-01-26T03:56:23.391Z,-2.30
2023-01-26T03:58:55.340Z,-2.30
2023-01-26T04:01:28.495Z,-2.20
2023-01-26T04:04:17.874Z,-2.30
2023-01-26T04:07:07.737Z,-2.30
2023-01-26T04:09:39.458Z,-2.30
2023-01-26T04:12:10.160Z,-2.30
2023-01-26T04:15:02.664Z,-2.30
2023-01-26T04:17:49.461Z,-2.30
2023-01-26T04:20:35.019Z,-2.30
2023-01-26T04:23:03.153Z,-2.30
2023-01-26T04:25:31.237Z,-2.30
2023-01-26T04:27:59.539Z,-2.20
2023-01-26T04:30:27.646Z,-2.20
2023-01-26T04:32:59.223Z,-2.20
2023-01-26T04:35:27.341Z,-2.30
2023-01-26T04:37:55.781Z,-2.20
2023-01-26T04:40:24.445Z,-2.20
2023-01-26T04:42:52.707Z,-2.20
2023-01-26T04:45:20.943Z,-2.20
2023-01-26T04:47:49.047Z,-2.20
2023-01-26T04:50:19.605Z,-2.20
2023-01-26T04:52:49.016Z,-2.20
2023-01-26T04:55:17.784Z,-2.20
2023-01-26T04:57:45.841Z,-2.10
2023-01-26T05:00:14.678Z,-2.10
2023-01-26T05:02:43.498Z,-2.10
2023-01-26T05:05:12.095Z,-2.10
2023-01-26T05:07:42.235Z,-2.10
2023-01-26T05:10:14.536Z,-2.10
2023-01-26T05:12:53.527Z,-2.20
2023-01-26T05:15:40.225Z,-2.20
2023-01-26T05:18:29.388Z,-2.20
2023-01-26T05:21:18.745Z,-2.10
2023-01-26T05:23:52.301Z,-2.20
2023-01-26T05:26:39.619Z,-2.20
2023-01-26T05:29:12.661Z,-2.20
2023-01-26T05:31:41.512Z,-2.20
2023-01-26T05:34:10.332Z,-2.10
2023-01-26T05:36:38.817Z,-2.20
2023-01-26T05:39:09.441Z,-2.10
2023-01-26T05:41:37.746Z,-2.10
2023-01-26T05:44:26.166Z,-2.10
2023-01-26T05:47:02.937Z,-2.10
2023-01-26T05:49:32.371Z,-2.10
2023-01-26T05:52:01.437Z,-2.00
2023-01-26T05:54:31.874Z,-2.10
2023-01-26T05:57:01.357Z,-2.00
2023-01-26T05:59:30.050Z,-2.10
2023-01-26T06:01:58.980Z,-2.10
2023-01-26T06:04:28.271Z,-2.10
2023-01-26T06:07:01.124Z,-2.10
2023-01-26T06:09:35.598Z,-2.10
2023-01-26T06:12:16.370Z,-2.10
2023-01-26T06:15:12.412Z,-2.00
2023-01-26T06:17:44.921Z,-2.00
2023-01-26T06:20:15.606Z,-2.00
2023-01-26T06:22:51.779Z,-2.00
2023-01-26T06:25:21.209Z,-1.90
2023-01-26T06:27:49.614Z,-1.90
2023-01-26T06:30:25.867Z,-1.90
2023-01-26T06:32:57.600Z,-1.90
2023-01-26T06:35:27.392Z,-1.90
2023-01-26T06:37:57.812Z,-1.90
2023-01-26T06:40:27.183Z,-1.90
2023-01-26T06:42:56.198Z,-1.90
2023-01-26T06:45:24.303Z,-1.90
2023-01-26T06:47:53.203Z,-1.90
2023-01-26T06:50:24.354Z,-1.90
2023-01-26T06:52:55.826Z,-1.90
2023-01-26T06:55:54.583Z,-1.90
2023-01-26T06:58:29.579Z,-1.90
2023-01-26T07:01:18.689Z,-1.90
2023-01-26T07:03:48.515Z,-1.90
2023-01-26T07:06:16.845Z,-1.90
2023-01-26T07:08:44.890Z,-1.90
2023-01-26T07:11:14.826Z,-1.80
2023-01-26T07:13:43.078Z,-1.80
2023-01-26T07:16:14.585Z,-1.80
2023-01-26T07:18:42.635Z,-1.80
2023-01-26T07:21:12.632Z,-1.80
2023-01-26T07:23:40.968Z,-1.80
2023-01-26T07:26:08.967Z,-1.80
2023-01-26T07:28:40.203Z,-1.80
2023-01-26T07:31:11.700Z,-1.80
2023-01-26T07:33:39.943Z,-1.70
2023-01-26T07:36:08.905Z,-1.70
2023-01-26T07:38:36.913Z,-1.70
2023-01-26T07:41:10.765Z,-1.60
2023-01-26T07:43:41.907Z,-1.60
2023-01-26T07:46:12.212Z,-1.60
2023-01-26T07:48:41.669Z,-1.50
2023-01-26T07:51:11.173Z,-1.50
2023-01-26T07:53:41.120Z,-1.50
2023-01-26T07:56:10.844Z,-1.50
2023-01-26T07:58:40.402Z,-1.50
2023-01-26T08:01:10.658Z,-1.50
2023-01-26T08:03:39.013Z,-1.50
2023-01-26T08:06:11.568Z,-1.50
2023-01-26T08:08:40.983Z,-1.40
2023-01-26T08:11:10.051Z,-1.40
2023-01-26T08:13:38.513Z,-1.40
2023-01-26T08:16:11.977Z,-1.40
2023-01-26T08:18:40.438Z,-1.30
2023-01-26T08:21:08.653Z,-1.30
2023-01-26T08:23:36.693Z,-1.30
2023-01-26T08:26:06.840Z,-1.30
2023-01-26T08:28:35.801Z,-1.30
2023-01-26T08:31:11.741Z,-1.20
2023-01-26T08:33:40.937Z,-1.20
2023-01-26T08:36:12.292Z,-1.20
2023-01-26T08:38:40.529Z,-1.10
2023-01-26T08:41:09.890Z,-1.10
2023-01-26T08:43:38.211Z,-1.00
2023-01-26T08:46:08.566Z,-1.00
2023-01-26T08:48:37.343Z,-0.90
2023-01-26T08:51:07.538Z,-0.80
2023-01-26T08:53:37.624Z,-0.70
2023-01-26T08:56:07.297Z,-0.60
2023-01-26T08:58:35.425Z,-0.50
2023-01-26T09:01:05.626Z,-0.40
2023-01-26T09:03:35.536Z,-0.40
2023-01-26T09:06:04.327Z,-0.30
2023-01-26T09:08:32.958Z,-0.20
2023-01-26T09:11:01.284Z,-0.20
2023-01-26T09:13:29.382Z,-0.10
2023-01-26T09:15:57.455Z,-0.10
2023-01-26T09:18:25.579Z,-0.10
2023-01-26T09:20:56.191Z,-0.10
2023-01-26T09:23:24.395Z,-0.10
2023-01-26T09:25:54.207Z,-0.10
2023-01-26T09:28:22.237Z,0.00
2023-01-26T09:30:50.358Z,0.00
2023-01-26T09:33:18.411Z,0.00
2023-01-26T09:35:46.414Z,0.10
2023-01-26T09:38:15.938Z,0.10
2023-01-26T09:40:51.451Z,0.20
2023-01-26T09:43:31.861Z,0.20
2023-01-26T09:46:07.840Z,0.20
2023-01-26T09:48:43.155Z,0.20
2023-01-26T09:51:17.015Z,0.20
2023-01-26T09:53:53.799Z,0.30
2023-01-26T09:56:28.129Z,0.30
2023-01-26T09:59:01.940Z,0.30
2023-01-26T10:01:36.854Z,0.20
2023-01-26T10:04:12.150Z,0.30
2023-01-26T10:06:41.497Z,0.30
2023-01-26T10:09:17.946Z,0.20
2023-01-26T10:11:48.516Z,0.30
2023-01-26T10:14:24.360Z,0.40
2023-01-26T10:16:54.714Z,0.40
2023-01-26T10:19:33.727Z,0.40
2023-01-26T10:22:06.919Z,0.40
2023-01-26T10:24:36.219Z,0.50
2023-01-26T10:27:11.393Z,0.50
2023-01-26T10:29:39.408Z,0.40
2023-01-26T10:32:11.433Z,0.50
2023-01-26T10:34:42.345Z,0.50
2023-01-26T10:37:21.722Z,0.50
2023-01-26T10:40:02.443Z,0.50
2023-01-26T10:42:32.498Z,0.50
2023-01-26T10:45:03.294Z,0.60
2023-01-26T10:47:31.575Z,0.70
2023-01-26T10:50:20.828Z,0.70
2023-01-26T10:53:06.934Z,0.80
2023-01-26T10:55:37.286Z,0.90
2023-01-26T10:58:05.757Z,0.90
2023-01-26T11:00:37.009Z,1.00
2023-01-26T11:03:17.546Z,1.00
2023-01-26T11:05:47.998Z,0.90
2023-01-26T11:08:33.529Z,0.90
2023-01-26T11:11:04.441Z,0.90
2023-01-26T11:13:32.651Z,1.00
2023-01-26T11:16:10.057Z,1.10
2023-01-26T11:18:47.874Z,1.10
2023-01-26T11:21:21.145Z,1.20
2023-01-26T11:23:58.512Z,1.30
2023-01-26T11:26:46.433Z,1.30
2023-01-26T11:29:36.615Z,1.30
2023-01-26T11:32:13.556Z,1.40
2023-01-26T11:34:51.046Z,1.40
2023-01-26T11:37:53.878Z,1.50
2023-01-26T11:40:35.215Z,1.50
2023-01-26T11:43:20.160Z,1.40
2023-01-26T11:46:02.431Z,1.50
2023-01-26T11:48:39.904Z,1.40
2023-01-26T11:51:16.697Z,1.40
2023-01-26T11:54:16.064Z,1.40
2023-01-26T11:56:50.925Z,1.50
2023-01-26T11:59:26.209Z,1.50
2023-01-26T12:02:00.731Z,1.60
2023-01-26T12:04:31.868Z,1.50
2023-01-26T12:07:04.538Z,1.50
2023-01-26T12:09:39.678Z,1.40
2023-01-26T12:12:14.074Z,1.40
2023-01-26T12:14:47.629Z,1.40
2023-01-26T12:17:32.428Z,1.40
2023-01-26T12:20:07.159Z,1.40
2023-01-26T12:22:38.122Z,1.50
2023-01-26T12:25:20.768Z,1.60
2023-01-26T12:27:56.433Z,1.60
2023-01-26T12:30:35.420Z,1.60
2023-01-26T12:33:03.678Z,1.60
2023-01-26T12:35:52.066Z,1.70
2023-01-26T12:38:24.229Z,1.70
2023-01-26T12:41:07.051Z,1.60
2023-01-26T12:43:46.349Z,1.70
2023-01-26T12:46:18.324Z,1.70
2023-01-26T12:48:50.791Z,1.70
2023-01-26T12:51:24.954Z,1.60
2023-01-26T12:54:22.257Z,1.50
2023-01-26T12:56:54.091Z,1.50
2023-01-26T12:59:47.200Z,1.50
2023-01-26T13:02:31.430Z,1.50
2023-01-26T13:05:00.891Z,1.50
2023-01-26T13:07:34.514Z,1.40
2023-01-26T13:10:25.316Z,1.40
2023-01-26T13:12:55.945Z,1.40
2023-01-26T13:15:25.932Z,1.30
2023-01-26T13:17:57.734Z,1.30
2023-01-26T13:20:44.338Z,1.20
2023-01-26T13:23:45.130Z,1.20
2023-01-26T13:26:32.680Z,1.30
2023-01-26T13:29:28.190Z,1.30
2023-01-26T13:31:57.716Z,1.30
2023-01-26T13:34:30.144Z,1.30
2023-01-26T13:37:06.595Z,1.30
2023-01-26T13:39:37.935Z,1.30
2023-01-26T13:42:20.088Z,1.30
2023-01-26T13:44:57.080Z,1.30
2023-01-26T13:47:32.174Z,1.30
2023-01-26T13:50:01.548Z,1.30
2023-01-26T13:52:29.685Z,1.30
2023-01-26T13:54:58.368Z,1.30
2023-01-26T13:57:28.562Z,1.40
2023-01-26T14:00:00.623Z,1.40
2023-01-26T14:02:31.568Z,1.40
2023-01-26T14:05:02.092Z,1.40
2023-01-26T14:07:33.634Z,1.60
2023-01-26T14:10:03.373Z,1.40
2023-01-26T14:12:35.730Z,1.40
2023-01-26T14:15:07.876Z,1.40
2023-01-26T14:17:38.223Z,1.40
2023-01-26T14:20:20.215Z,1.40
2023-01-26T14:23:03.749Z,1.40
2023-01-26T14:25:31.918Z,1.40
2023-01-26T14:27:59.959Z,1.40
2023-01-26T14:30:30.455Z,1.40
2023-01-26T14:33:04.800Z,1.40
2023-01-26T14:35:34.610Z,1.40
2023-01-26T14:38:07.332Z,1.40
2023-01-26T14:40:35.506Z,1.40
2023-01-26T14:43:04.785Z,1.40
2023-01-26T14:45:33.580Z,1.40
2023-01-26T14:48:06.180Z,1.40
2023-01-26T14:50:37.940Z,1.40
2023-01-26T14:53:06.860Z,1.30
2023-01-26T14:55:37.092Z,1.30
2023-01-26T14:58:15.906Z,1.30
2023-01-26T15:00:49.006Z,1.30
2023-01-26T15:03:24.585Z,1.30
2023-01-26T15:06:17.013Z,1.30
2023-01-26T15:08:55.807Z,1.30
2023-01-26T15:11:55.860Z,1.30
2023-01-26T15:14:52.045Z,1.30
2023-01-26T15:17:31.490Z,1.20
2023-01-26T15:19:59.588Z,1.30
2023-01-26T15:22:29.057Z,1.30
2023-01-26T15:25:02.637Z,1.30
2023-01-26T15:27:35.847Z,1.20
2023-01-26T15:30:06.987Z,1.20
2023-01-26T15:32:40.835Z,1.30
2023-01-26T15:35:20.088Z,1.30
2023-01-26T15:37:50.145Z,1.30
2023-01-26T15:40:18.520Z,1.30
2023-01-26T15:42:46.529Z,1.30
2023-01-26T15:45:25.893Z,1.30
2023-01-26T15:47:54.812Z,1.30
2023-01-26T15:50:28.239Z,1.30
2023-01-26T15:52:57.843Z,1.30
2023-01-26T15:55:29.099Z,1.30
2023-01-26T15:57:57.399Z,1.30
2023-01-26T16:00:25.860Z,1.30
2023-01-26T16:02:53.887Z,1.30
2023-01-26T16:05:24.010Z,1.20
2023-01-26T16:07:52.618Z,1.20
2023-01-26T16:10:22.104Z,1.20
2023-01-26T16:12:51.193Z,1.20
2023-01-26T16:15:31.950Z,1.20
2023-01-26T16:17:59.985Z,1.10
2023-01-26T16:20:27.967Z,1.10
2023-01-26T16:22:55.989Z,1.10
2023-01-26T16:25:28.105Z,1.10
2023-01-26T16:27:57.517Z,1.10
2023-01-26T16:30:26.604Z,1.10
2023-01-26T16:32:54.649Z,1.10
2023-01-26T16:35:24.074Z,1.10
2023-01-26T16:37:52.209Z,1.10
2023-01-26T16:40:20.543Z,1.10
2023-01-26T16:42:52.574Z,1.10
2023-01-26T16:45:22.008Z,1.10
2023-01-26T16:47:52.188Z,1.10
2023-01-26T16:50:20.769Z,1.10
2023-01-26T16:52:48.991Z,1.10
2023-01-26T16:55:17.796Z,1.10
2023-01-26T16:57:49.349Z,1.10
2023-01-26T17:00:20.790Z,1.10
2023-01-26T17:02:52.272Z,1.10
2023-01-26T17:05:22.774Z,1.00
2023-01-26T17:07:51.548Z,1.00
2023-01-26T17:10:22.315Z,1.00
2023-01-26T17:12:50.547Z,1.00
2023-01-26T17:15:20.822Z,1.00
2023-01-26T17:17:49.937Z,1.00
2023-01-26T17:20:19.833Z,1.00
2023-01-26T17:22:49.152Z,1.00
2023-01-26T17:25:18.807Z,1.10
2023-01-26T17:27:49.977Z,1.00
2023-01-26T17:30:20.077Z,1.00
2023-01-26T17:32:48.190Z,1.00
2023-01-26T17:35:16.386Z,1.00
2023-01-26T17:37:44.398Z,1.00
2023-01-26T17:40:13.366Z,1.10
2023-01-26T17:42:41.903Z,1.10
2023-01-26T17:45:11.103Z,1.10
2023-01-26T17:47:40.739Z,1.10
2023-01-26T17:50:10.175Z,1.10
2023-01-26T17:52:38.590Z,1.10
2023-01-26T17:55:09.687Z,1.10
2023-01-26T17:57:37.955Z,1.10
2023-01-26T18:00:07.498Z,1.10
2023-01-26T18:02:38.612Z,1.20
2023-01-26T18:05:10.065Z,1.10
2023-01-26T18:07:38.440Z,1.10
2023-01-26T18:10:07.563Z,1.10
2023-01-26T18:12:37.597Z,1.10
2023-01-26T18:15:06.583Z,1.10
2023-01-26T18:17:36.957Z,1.10
2023-01-26T18:20:05.544Z,1.10
2023-01-26T18:22:34.900Z,1.10
2023-01-26T18:25:03.287Z,1.10
2023-01-26T18:27:31.292Z,1.10
2023-01-26T18:29:59.290Z,1.10
2023-01-26T18:32:27.382Z,1.10
2023-01-26T18:34:55.432Z,1.10
2023-01-26T18:37:23.457Z,1.10
2023-01-26T18:39:52.824Z,1.20
2023-01-26T18:42:20.859Z,1.20
2023-01-26T18:44:48.889Z,1.30
2023-01-26T18:47:17.398Z,1.20
2023-01-26T18:49:45.451Z,1.20
2023-01-26T18:52:13.494Z,1.30
2023-01-26T18:54:42.565Z,1.30
2023-01-26T18:57:12.122Z,1.30
2023-01-26T18:59:40.212Z,1.30
2023-01-26T19:02:08.324Z,1.20
2023-01-26T19:04:36.924Z,1.20
2023-01-26T19:07:04.972Z,1.30
2023-01-26T19:09:34.802Z,1.20
2023-01-26T19:12:03.006Z,1.20
2023-01-26T19:14:33.165Z,1.30
2023-01-26T19:17:01.502Z,1.30
2023-01-26T19:19:31.699Z,1.30
2023-01-26T19:21:59.673Z,1.30
2023-01-26T19:24:27.711Z,1.30
2023-01-26T19:26:55.775Z,1.30
2023-01-26T19:29:23.839Z,1.30
2023-01-26T19:31:53.281Z,1.30
2023-01-26T19:34:21.660Z,1.40
2023-01-26T19:36:49.656Z,1.40
2023-01-26T19:39:17.677Z,1.40
2023-01-26T19:41:46.324Z,1.40
2023-01-26T19:44:14.386Z,1.40
2023-01-26T19:46:42.380Z,1.40
2023-01-26T19:49:13.460Z,1.40
2023-01-26T19:51:41.917Z,1.50
2023-01-26T19:54:09.966Z,1.50
2023-01-26T19:56:38.293Z,1.50
2023-01-26T19:59:10.010Z,1.50
2023-01-26T20:01:38.249Z,1.50
2023-01-26T20:04:09.068Z,1.50
2023-01-26T20:06:38.906Z,1.50
2023-01-26T20:09:08.996Z,1.50
2023-01-26T20:11:37.252Z,1.50
2023-01-26T20:14:08.379Z,1.50
2023-01-26T20:16:37.054Z,1.50
2023-01-26T20:19:05.482Z,1.50
2023-01-26T20:21:35.402Z,1.50
2023-01-26T20:24:06.401Z,1.50
2023-01-26T20:26:35.903Z,1.50
2023-01-26T20:29:04.317Z,1.50
2023-01-26T20:31:33.110Z,1.50
2023-01-26T20:34:02.077Z,1.50
2023-01-26T20:36:30.269Z,1.50
2023-01-26T20:38:58.697Z,1.50
2023-01-26T20:41:30.357Z,1.50
2023-01-26T20:44:02.641Z,1.50
2023-01-26T20:46:33.484Z,1.50
2023-01-26T20:49:02.314Z,1.50
2023-01-26T20:51:33.807Z,1.50
2023-01-26T20:54:02.500Z,1.50
2023-01-26T20:56:32.453Z,1.50
2023-01-26T20:59:00.616Z,1.50
2023-01-26T21:01:28.908Z,1.50
2023-01-26T21:03:57.035Z,1.50
2023-01-26T21:06:26.114Z,1.50
2023-01-26T21:08:55.869Z,1.50
2023-01-26T21:11:25.579Z,1.50
2023-01-26T21:13:56.329Z,1.50
2023-01-26T21:16:25.310Z,1.50
2023-01-26T21:18:53.467Z,1.50
2023-01-26T21:21:22.531Z,1.50
2023-01-26T21:23:51.442Z,1.50
2023-01-26T21:26:22.351Z,1.50
2023-01-26T21:28:51.782Z,1.50
2023-01-26T21:31:22.699Z,1.50
2023-01-26T21:33:51.375Z,1.50
2023-01-26T21:36:21.153Z,1.50
2023-01-26T21:38:51.713Z,1.50
2023-01-26T21:41:39.071Z,1.50
2023-01-26T21:44:10.754Z,1.50
2023-01-26T21:46:40.774Z,1.50
2023-01-26T21:49:09.284Z,1.50
2023-01-26T21:51:55.242Z,1.50
2023-01-26T21:54:45.100Z,1.50
2023-01-26T21:57:31.174Z,1.50
2023-01-26T21:59:59.668Z,1.80
2023-01-26T22:02:29.114Z,1.50
2023-01-26T22:04:57.140Z,1.50
2023-01-26T22:07:27.953Z,1.50
2023-01-26T22:09:56.504Z,1.50
2023-01-26T22:12:24.596Z,1.50
2023-01-26T22:14:52.784Z,1.50
2023-01-26T22:17:20.847Z,1.50
2023-01-26T22:19:50.247Z,1.50
2023-01-26T22:22:18.245Z,1.50
2023-01-26T22:24:46.263Z,1.50
2023-01-26T22:27:14.285Z,1.50
2023-01-26T22:29:42.754Z,1.50
2023-01-26T22:32:10.826Z,1.50
2023-01-26T22:34:38.835Z,1.50
2023-01-26T22:37:08.176Z,1.50
2023-01-26T22:39:36.223Z,1.50
2023-01-26T22:42:04.313Z,1.50
2023-01-26T22:44:32.356Z,1.70
2023-01-26T22:47:00.338Z,1.50
2023-01-26T22:49:28.667Z,1.60
2023-01-26T22:51:56.849Z,1.60
2023-01-26T22:54:27.422Z,1.60
2023-01-26T22:56:55.406Z,1.60
2023-01-26T22:59:23.427Z,1.60
2023-01-26T23:01:51.448Z,1.60
2023-01-26T23:04:19.982Z,1.60
2023-01-26T23:06:47.971Z,1.60
2023-01-26T23:09:15.959Z,1.60
2023-01-26T23:11:45.658Z,1.70
2023-01-26T23:14:13.674Z,1.70
2023-01-26T23:16:42.091Z,1.70
2023-01-26T23:19:10.080Z,1.70
2023-01-26T23:21:38.478Z,1.70
2023-01-26T23:24:07.197Z,1.70
2023-01-26T23:26:35.294Z,1.70
2023-01-26T23:29:05.246Z,1.70
2023-01-26T23:31:33.387Z,1.70
2023-01-26T23:34:01.598Z,1.70
2023-01-26T23:36:30.398Z,1.70
2023-01-26T23:38:58.404Z,1.70
2023-01-26T23:41:26.871Z,1.70
2023-01-26T23:43:54.894Z,1.80
2023-01-26T23:46:24.674Z,1.80
2023-01-26T23:48:52.712Z,1.80
2023-01-26T23:51:20.745Z,1.80
2023-01-26T23:54:11.344Z,1.80
2023-01-26T23:56:39.367Z,1.80
2023-01-26T23:59:07.407Z,1.80
